sensor_id;sensor_type;location;lat;lon;timestamp;P1;durP1;ratioP1;P2;durP2;ratioP2
22439;SDS011;11387;51.612;7.210;2023-12-20T00:01:37;100.60;;;31.30;;
22439;SDS011;11387;51.612;7.210;2023-12-20T00:04:06;84.38;;;30.70;;
22439;SDS011;11387;51.612;7.210;2023-12-20T00:06:34;83.50;;;30.38;;
22439;SDS011;11387;51.612;7.210;2023-12-20T00:09:03;102.13;;;31.80;;
22439;SDS011;11387;51.612;7.210;2023-12-20T00:11:32;91.97;;;30.70;;
22439;SDS011;11387;51.612;7.210;2023-12-20T00:14:00;83.63;;;30.08;;
22439;SDS011;11387;51.612;7.210;2023-12-20T00:16:30;82.50;;;30.98;;
22439;SDS011;11387;51.612;7.210;2023-12-20T00:18:59;82.55;;;30.25;;
22439;SDS011;11387;51.612;7.210;2023-12-20T00:21:27;69.13;;;26.48;;
22439;SDS011;11387;51.612;7.210;2023-12-20T00:23:56;65.32;;;24.90;;
22439;SDS011;11387;51.612;7.210;2023-12-20T00:26:24;69.90;;;26.00;;
22439;SDS011;11387;51.612;7.210;2023-12-20T00:28:53;60.42;;;23.67;;
22439;SDS011;11387;51.612;7.210;2023-12-20T00:31:21;54.55;;;18.83;;
22439;SDS011;11387;51.612;7.210;2023-12-20T00:33:52;41.50;;;17.40;;
22439;SDS011;11387;51.612;7.210;2023-12-20T00:36:20;44.17;;;16.55;;
22439;SDS011;11387;51.612;7.210;2023-12-20T00:38:49;47.28;;;18.98;;
22439;SDS011;11387;51.612;7.210;2023-12-20T00:41:18;40.83;;;16.75;;
22439;SDS011;11387;51.612;7.210;2023-12-20T00:43:47;36.83;;;15.73;;
22439;SDS011;11387;51.612;7.210;2023-12-20T00:46:16;46.47;;;17.50;;
22439;SDS011;11387;51.612;7.210;2023-12-20T00:48:44;47.13;;;17.10;;
22439;SDS011;11387;51.612;7.210;2023-12-20T00:51:14;49.95;;;16.67;;
22439;SDS011;11387;51.612;7.210;2023-12-20T00:53:43;42.33;;;15.88;;
22439;SDS011;11387;51.612;7.210;2023-12-20T00:56:11;43.55;;;16.38;;
22439;SDS011;11387;51.612;7.210;2023-12-20T00:58:39;45.30;;;16.35;;
22439;SDS011;11387;51.612;7.210;2023-12-20T01:01:08;45.90;;;16.27;;
22439;SDS011;11387;51.612;7.210;2023-12-20T01:03:37;42.40;;;14.88;;
22439;SDS011;11387;51.612;7.210;2023-12-20T01:06:05;45.90;;;14.77;;
22439;SDS011;11387;51.612;7.210;2023-12-20T01:08:35;44.22;;;13.65;;
22439;SDS011;11387;51.612;7.210;2023-12-20T01:11:05;31.23;;;11.55;;
22439;SDS011;11387;51.612;7.210;2023-12-20T01:13:34;30.80;;;11.75;;
22439;SDS011;11387;51.612;7.210;2023-12-20T01:16:03;32.13;;;11.38;;
22439;SDS011;11387;51.612;7.210;2023-12-20T01:18:33;28.95;;;10.20;;
22439;SDS011;11387;51.612;7.210;2023-12-20T01:21:01;41.20;;;11.50;;
22439;SDS011;11387;51.612;7.210;2023-12-20T01:23:31;43.05;;;11.45;;
22439;SDS011;11387;51.612;7.210;2023-12-20T01:26:01;30.27;;;11.68;;
22439;SDS011;11387;51.612;7.210;2023-12-20T01:28:31;28.73;;;10.68;;
22439;SDS011;11387;51.612;7.210;2023-12-20T01:31:00;26.85;;;9.95;;
22439;SDS011;11387;51.612;7.210;2023-12-20T01:33:28;36.67;;;11.07;;
22439;SDS011;11387;51.612;7.210;2023-12-20T01:35:57;27.85;;;9.77;;
22439;SDS011;11387;51.612;7.210;2023-12-20T01:38:26;32.53;;;11.07;;
22439;SDS011;11387;51.612;7.210;2023-12-20T01:40:54;31.83;;;10.25;;
22439;SDS011;11387;51.612;7.210;2023-12-20T01:43:24;39.47;;;11.50;;
22439;SDS011;11387;51.612;7.210;2023-12-20T01:45:57;43.25;;;10.95;;
22439;SDS011;11387;51.612;7.210;2023-12-20T01:48:26;34.28;;;11.73;;
22439;SDS011;11387;51.612;7.210;2023-12-20T01:50:56;40.97;;;11.15;;
22439;SDS011;11387;51.612;7.210;2023-12-20T01:53:24;37.38;;;12.63;;
22439;SDS011;11387;51.612;7.210;2023-12-20T01:55:54;33.95;;;10.70;;
22439;SDS011;11387;51.612;7.210;2023-12-20T01:58:25;35.03;;;11.05;;
22439;SDS011;11387;51.612;7.210;2023-12-20T02:00:54;33.13;;;11.48;;
22439;SDS011;11387;51.612;7.210;2023-12-20T02:03:23;39.58;;;12.25;;
22439;SDS011;11387;51.612;7.210;2023-12-20T02:05:56;40.75;;;10.88;;
22439;SDS011;11387;51.612;7.210;2023-12-20T02:08:25;37.03;;;10.88;;
22439;SDS011;11387;51.612;7.210;2023-12-20T02:10:54;39.97;;;10.57;;
22439;SDS011;11387;51.612;7.210;2023-12-20T02:13:25;41.80;;;10.50;;
22439;SDS011;11387;51.612;7.210;2023-12-20T02:15:55;39.90;;;11.38;;
22439;SDS011;11387;51.612;7.210;2023-12-20T02:18:24;31.55;;;10.60;;
22439;SDS011;11387;51.612;7.210;2023-12-20T02:20:53;40.97;;;11.48;;
22439;SDS011;11387;51.612;7.210;2023-12-20T02:23:24;37.15;;;11.05;;
22439;SDS011;11387;51.612;7.210;2023-12-20T02:25:52;30.48;;;11.43;;
22439;SDS011;11387;51.612;7.210;2023-12-20T02:28:21;46.45;;;11.60;;
22439;SDS011;11387;51.612;7.210;2023-12-20T02:30:50;47.88;;;12.45;;
22439;SDS011;11387;51.612;7.210;2023-12-20T02:33:19;38.72;;;12.13;;
22439;SDS011;11387;51.612;7.210;2023-12-20T02:35:48;39.42;;;12.82;;
22439;SDS011;11387;51.612;7.210;2023-12-20T02:38:19;35.65;;;12.70;;
22439;SDS011;11387;51.612;7.210;2023-12-20T02:40:51;31.50;;;9.68;;
22439;SDS011;11387;51.612;7.210;2023-12-20T02:43:19;34.75;;;9.70;;
22439;SDS011;11387;51.612;7.210;2023-12-20T02:45:48;32.08;;;9.13;;
22439;SDS011;11387;51.612;7.210;2023-12-20T02:48:17;38.45;;;9.93;;
22439;SDS011;11387;51.612;7.210;2023-12-20T02:50:46;31.80;;;9.65;;
22439;SDS011;11387;51.612;7.210;2023-12-20T02:53:17;44.95;;;10.93;;
22439;SDS011;11387;51.612;7.210;2023-12-20T02:55:45;38.90;;;10.93;;
22439;SDS011;11387;51.612;7.210;2023-12-20T02:58:17;50.05;;;10.65;;
22439;SDS011;11387;51.612;7.210;2023-12-20T03:00:46;38.13;;;10.68;;
22439;SDS011;11387;51.612;7.210;2023-12-20T03:03:14;44.25;;;10.48;;
22439;SDS011;11387;51.612;7.210;2023-12-20T03:05:43;25.77;;;10.95;;
22439;SDS011;11387;51.612;7.210;2023-12-20T03:08:13;41.00;;;11.90;;
22439;SDS011;11387;51.612;7.210;2023-12-20T03:10:41;34.17;;;10.43;;
22439;SDS011;11387;51.612;7.210;2023-12-20T03:13:10;32.38;;;10.38;;
22439;SDS011;11387;51.612;7.210;2023-12-20T03:15:42;36.67;;;10.40;;
22439;SDS011;11387;51.612;7.210;2023-12-20T03:18:11;43.55;;;11.45;;
22439;SDS011;11387;51.612;7.210;2023-12-20T03:20:40;48.33;;;12.77;;
22439;SDS011;11387;51.612;7.210;2023-12-20T03:23:09;35.90;;;11.40;;
22439;SDS011;11387;51.612;7.210;2023-12-20T03:25:37;43.08;;;13.20;;
22439;SDS011;11387;51.612;7.210;2023-12-20T03:28:06;39.25;;;12.88;;
22439;SDS011;11387;51.612;7.210;2023-12-20T03:30:37;40.50;;;14.93;;
22439;SDS011;11387;51.612;7.210;2023-12-20T03:33:07;46.95;;;13.52;;
22439;SDS011;11387;51.612;7.210;2023-12-20T03:35:36;42.72;;;13.48;;
22439;SDS011;11387;51.612;7.210;2023-12-20T03:38:06;37.47;;;12.98;;
22439;SDS011;11387;51.612;7.210;2023-12-20T03:40:35;37.38;;;14.15;;
22439;SDS011;11387;51.612;7.210;2023-12-20T03:43:03;46.90;;;13.07;;
22439;SDS011;11387;51.612;7.210;2023-12-20T03:45:32;44.08;;;13.65;;
22439;SDS011;11387;51.612;7.210;2023-12-20T03:48:01;47.00;;;13.77;;
22439;SDS011;11387;51.612;7.210;2023-12-20T03:50:31;48.03;;;13.30;;
22439;SDS011;11387;51.612;7.210;2023-12-20T03:52:59;40.80;;;12.93;;
22439;SDS011;11387;51.612;7.210;2023-12-20T03:55:28;39.50;;;13.63;;
22439;SDS011;11387;51.612;7.210;2023-12-20T03:57:56;40.25;;;13.68;;
22439;SDS011;11387;51.612;7.210;2023-12-20T04:00:25;48.17;;;12.98;;
22439;SDS011;11387;51.612;7.210;2023-12-20T04:02:54;40.67;;;12.30;;
22439;SDS011;11387;51.612;7.210;2023-12-20T04:05:27;42.65;;;11.85;;
22439;SDS011;11387;51.612;7.210;2023-12-20T04:07:57;48.25;;;11.43;;
22439;SDS011;11387;51.612;7.210;2023-12-20T04:10:28;35.45;;;9.95;;
22439;SDS011;11387;51.612;7.210;2023-12-20T04:12:56;36.88;;;11.88;;
22439;SDS011;11387;51.612;7.210;2023-12-20T04:15:25;38.92;;;11.40;;
22439;SDS011;11387;51.612;7.210;2023-12-20T04:17:53;57.08;;;10.68;;
22439;SDS011;11387;51.612;7.210;2023-12-20T04:20:22;36.60;;;9.30;;
22439;SDS011;11387;51.612;7.210;2023-12-20T04:22:51;42.35;;;9.70;;
22439;SDS011;11387;51.612;7.210;2023-12-20T04:25:20;32.13;;;9.98;;
22439;SDS011;11387;51.612;7.210;2023-12-20T04:27:49;37.30;;;9.73;;
22439;SDS011;11387;51.612;7.210;2023-12-20T04:30:18;42.65;;;10.77;;
22439;SDS011;11387;51.612;7.210;2023-12-20T04:32:46;42.25;;;9.73;;
22439;SDS011;11387;51.612;7.210;2023-12-20T04:35:16;36.75;;;9.13;;
22439;SDS011;11387;51.612;7.210;2023-12-20T04:37:47;34.10;;;8.98;;
22439;SDS011;11387;51.612;7.210;2023-12-20T04:40:17;38.45;;;8.07;;
22439;SDS011;11387;51.612;7.210;2023-12-20T04:42:47;49.28;;;9.88;;
22439;SDS011;11387;51.612;7.210;2023-12-20T04:45:16;30.23;;;9.48;;
22439;SDS011;11387;51.612;7.210;2023-12-20T04:47:46;38.80;;;12.50;;
22439;SDS011;11387;51.612;7.210;2023-12-20T04:50:16;40.45;;;9.93;;
22439;SDS011;11387;51.612;7.210;2023-12-20T04:52:44;41.60;;;10.52;;
22439;SDS011;11387;51.612;7.210;2023-12-20T04:55:13;38.85;;;10.85;;
22439;SDS011;11387;51.612;7.210;2023-12-20T04:57:42;40.22;;;9.68;;
22439;SDS011;11387;51.612;7.210;2023-12-20T05:00:13;40.22;;;11.45;;
22439;SDS011;11387;51.612;7.210;2023-12-20T05:02:43;34.90;;;10.10;;
22439;SDS011;11387;51.612;7.210;2023-12-20T05:05:12;36.60;;;8.57;;
22439;SDS011;11387;51.612;7.210;2023-12-20T05:07:42;36.35;;;10.05;;
22439;SDS011;11387;51.612;7.210;2023-12-20T05:10:11;34.72;;;8.38;;
22439;SDS011;11387;51.612;7.210;2023-12-20T05:12:40;41.75;;;7.68;;
22439;SDS011;11387;51.612;7.210;2023-12-20T05:15:08;39.63;;;9.65;;
22439;SDS011;11387;51.612;7.210;2023-12-20T05:17:38;40.83;;;8.85;;
22439;SDS011;11387;51.612;7.210;2023-12-20T05:20:08;36.72;;;7.90;;
22439;SDS011;11387;51.612;7.210;2023-12-20T05:22:37;35.42;;;7.32;;
22439;SDS011;11387;51.612;7.210;2023-12-20T05:25:06;50.78;;;9.27;;
22439;SDS011;11387;51.612;7.210;2023-12-20T05:27:35;30.20;;;7.97;;
22439;SDS011;11387;51.612;7.210;2023-12-20T05:30:05;38.67;;;10.02;;
22439;SDS011;11387;51.612;7.210;2023-12-20T05:32:35;34.85;;;8.43;;
22439;SDS011;11387;51.612;7.210;2023-12-20T05:35:05;31.92;;;7.93;;
22439;SDS011;11387;51.612;7.210;2023-12-20T05:37:34;36.97;;;8.80;;
22439;SDS011;11387;51.612;7.210;2023-12-20T05:40:05;31.80;;;9.07;;
22439;SDS011;11387;51.612;7.210;2023-12-20T05:42:37;38.33;;;8.10;;
22439;SDS011;11387;51.612;7.210;2023-12-20T05:45:06;35.95;;;8.32;;
22439;SDS011;11387;51.612;7.210;2023-12-20T05:47:35;36.70;;;8.93;;
22439;SDS011;11387;51.612;7.210;2023-12-20T05:50:03;30.63;;;8.30;;
22439;SDS011;11387;51.612;7.210;2023-12-20T05:52:36;28.45;;;8.00;;
22439;SDS011;11387;51.612;7.210;2023-12-20T05:55:05;33.05;;;8.90;;
22439;SDS011;11387;51.612;7.210;2023-12-20T05:57:34;28.88;;;7.88;;
22439;SDS011;11387;51.612;7.210;2023-12-20T06:00:03;35.55;;;8.85;;
22439;SDS011;11387;51.612;7.210;2023-12-20T06:02:33;23.25;;;7.20;;
22439;SDS011;11387;51.612;7.210;2023-12-20T06:05:04;23.17;;;7.22;;
22439;SDS011;11387;51.612;7.210;2023-12-20T06:07:35;35.08;;;8.63;;
22439;SDS011;11387;51.612;7.210;2023-12-20T06:10:04;24.70;;;6.13;;
22439;SDS011;11387;51.612;7.210;2023-12-20T06:13:00;30.27;;;8.65;;
22439;SDS011;11387;51.612;7.210;2023-12-20T06:15:30;29.35;;;8.65;;
22439;SDS011;11387;51.612;7.210;2023-12-20T06:18:00;21.35;;;8.85;;
22439;SDS011;11387;51.612;7.210;2023-12-20T06:20:30;36.40;;;8.45;;
22439;SDS011;11387;51.612;7.210;2023-12-20T06:23:01;32.42;;;9.52;;
22439;SDS011;11387;51.612;7.210;2023-12-20T06:25:30;34.78;;;9.05;;
22439;SDS011;11387;51.612;7.210;2023-12-20T06:27:58;35.88;;;10.05;;
22439;SDS011;11387;51.612;7.210;2023-12-20T06:30:27;39.72;;;10.48;;
22439;SDS011;11387;51.612;7.210;2023-12-20T06:32:56;30.65;;;9.23;;
22439;SDS011;11387;51.612;7.210;2023-12-20T06:35:25;32.70;;;10.80;;
22439;SDS011;11387;51.612;7.210;2023-12-20T06:37:55;31.17;;;9.98;;
22439;SDS011;11387;51.612;7.210;2023-12-20T06:40:24;27.60;;;9.90;;
22439;SDS011;11387;51.612;7.210;2023-12-20T06:42:55;38.40;;;10.73;;
22439;SDS011;11387;51.612;7.210;2023-12-20T06:45:36;39.85;;;9.73;;
22439;SDS011;11387;51.612;7.210;2023-12-20T06:48:07;31.02;;;10.27;;
22439;SDS011;11387;51.612;7.210;2023-12-20T06:50:35;26.38;;;9.43;;
22439;SDS011;11387;51.612;7.210;2023-12-20T06:53:08;29.17;;;9.95;;
22439;SDS011;11387;51.612;7.210;2023-12-20T06:55:37;31.00;;;10.00;;
22439;SDS011;11387;51.612;7.210;2023-12-20T06:58:06;33.75;;;9.48;;
22439;SDS011;11387;51.612;7.210;2023-12-20T07:00:34;36.25;;;10.10;;
22439;SDS011;11387;51.612;7.210;2023-12-20T07:03:03;31.55;;;9.88;;
22439;SDS011;11387;51.612;7.210;2023-12-20T07:05:33;39.10;;;10.70;;
22439;SDS011;11387;51.612;7.210;2023-12-20T07:08:01;38.00;;;10.55;;
22439;SDS011;11387;51.612;7.210;2023-12-20T07:10:35;28.83;;;8.82;;
22439;SDS011;11387;51.612;7.210;2023-12-20T07:13:05;28.75;;;10.00;;
22439;SDS011;11387;51.612;7.210;2023-12-20T07:15:34;30.88;;;10.00;;
22439;SDS011;11387;51.612;7.210;2023-12-20T07:18:04;32.95;;;11.18;;
22439;SDS011;11387;51.612;7.210;2023-12-20T07:20:33;32.33;;;10.63;;
22439;SDS011;11387;51.612;7.210;2023-12-20T07:23:02;35.67;;;9.93;;
22439;SDS011;11387;51.612;7.210;2023-12-20T07:25:32;36.55;;;9.50;;
22439;SDS011;11387;51.612;7.210;2023-12-20T07:28:01;41.22;;;9.20;;
22439;SDS011;11387;51.612;7.210;2023-12-20T07:30:30;32.63;;;10.13;;
22439;SDS011;11387;51.612;7.210;2023-12-20T07:32:58;23.73;;;9.25;;
22439;SDS011;11387;51.612;7.210;2023-12-20T07:35:28;30.90;;;8.57;;
22439;SDS011;11387;51.612;7.210;2023-12-20T07:37:57;34.10;;;8.57;;
22439;SDS011;11387;51.612;7.210;2023-12-20T07:40:25;24.58;;;8.13;;
22439;SDS011;11387;51.612;7.210;2023-12-20T07:42:55;39.33;;;9.30;;
22439;SDS011;11387;51.612;7.210;2023-12-20T07:45:25;27.48;;;8.63;;
22439;SDS011;11387;51.612;7.210;2023-12-20T07:47:55;21.17;;;7.13;;
22439;SDS011;11387;51.612;7.210;2023-12-20T07:50:23;24.77;;;8.35;;
22439;SDS011;11387;51.612;7.210;2023-12-20T07:52:53;36.85;;;9.20;;
22439;SDS011;11387;51.612;7.210;2023-12-20T07:55:22;33.05;;;8.90;;
22439;SDS011;11387;51.612;7.210;2023-12-20T07:57:53;30.95;;;7.30;;
22439;SDS011;11387;51.612;7.210;2023-12-20T08:00:23;24.02;;;7.45;;
22439;SDS011;11387;51.612;7.210;2023-12-20T08:02:56;29.50;;;7.18;;
22439;SDS011;11387;51.612;7.210;2023-12-20T08:05:33;30.98;;;7.47;;
22439;SDS011;11387;51.612;7.210;2023-12-20T08:08:02;32.05;;;7.13;;
22439;SDS011;11387;51.612;7.210;2023-12-20T08:10:31;29.02;;;7.15;;
22439;SDS011;11387;51.612;7.210;2023-12-20T08:13:02;36.03;;;6.90;;
22439;SDS011;11387;51.612;7.210;2023-12-20T08:15:32;28.92;;;7.10;;
22439;SDS011;11387;51.612;7.210;2023-12-20T08:18:01;38.65;;;6.40;;
22439;SDS011;11387;51.612;7.210;2023-12-20T08:20:30;25.98;;;6.15;;
22439;SDS011;11387;51.612;7.210;2023-12-20T08:23:07;29.25;;;6.65;;
22439;SDS011;11387;51.612;7.210;2023-12-20T08:25:38;28.13;;;6.60;;
22439;SDS011;11387;51.612;7.210;2023-12-20T08:28:07;26.10;;;6.20;;
22439;SDS011;11387;51.612;7.210;2023-12-20T08:30:38;31.63;;;6.55;;
22439;SDS011;11387;51.612;7.210;2023-12-20T08:33:07;26.00;;;5.60;;
22439;SDS011;11387;51.612;7.210;2023-12-20T08:35:40;31.33;;;7.03;;
22439;SDS011;11387;51.612;7.210;2023-12-20T08:38:11;26.60;;;5.20;;
22439;SDS011;11387;51.612;7.210;2023-12-20T08:40:40;27.50;;;5.72;;
22439;SDS011;11387;51.612;7.210;2023-12-20T08:43:08;18.17;;;5.05;;
22439;SDS011;11387;51.612;7.210;2023-12-20T08:45:38;26.65;;;6.57;;
22439;SDS011;11387;51.612;7.210;2023-12-20T08:48:09;27.75;;;6.80;;
22439;SDS011;11387;51.612;7.210;2023-12-20T08:50:38;26.23;;;5.65;;
22439;SDS011;11387;51.612;7.210;2023-12-20T08:53:10;32.70;;;5.88;;
22439;SDS011;11387;51.612;7.210;2023-12-20T08:55:38;23.35;;;5.85;;
22439;SDS011;11387;51.612;7.210;2023-12-20T08:58:07;33.55;;;5.90;;
22439;SDS011;11387;51.612;7.210;2023-12-20T09:00:41;20.70;;;4.93;;
22439;SDS011;11387;51.612;7.210;2023-12-20T09:03:09;20.05;;;4.47;;
22439;SDS011;11387;51.612;7.210;2023-12-20T09:05:38;23.67;;;5.57;;
22439;SDS011;11387;51.612;7.210;2023-12-20T09:08:10;28.05;;;6.43;;
22439;SDS011;11387;51.612;7.210;2023-12-20T09:10:39;24.02;;;4.55;;
22439;SDS011;11387;51.612;7.210;2023-12-20T09:13:08;23.95;;;6.60;;
22439;SDS011;11387;51.612;7.210;2023-12-20T09:15:36;35.78;;;5.90;;
22439;SDS011;11387;51.612;7.210;2023-12-20T09:18:06;18.63;;;4.95;;
22439;SDS011;11387;51.612;7.210;2023-12-20T09:20:38;23.55;;;5.00;;
22439;SDS011;11387;51.612;7.210;2023-12-20T09:23:10;25.40;;;4.55;;
22439;SDS011;11387;51.612;7.210;2023-12-20T09:25:39;27.83;;;6.00;;
22439;SDS011;11387;51.612;7.210;2023-12-20T09:28:07;26.63;;;5.60;;
22439;SDS011;11387;51.612;7.210;2023-12-20T09:30:36;19.65;;;5.30;;
22439;SDS011;11387;51.612;7.210;2023-12-20T09:33:08;23.10;;;4.38;;
22439;SDS011;11387;51.612;7.210;2023-12-20T09:35:37;31.10;;;5.20;;
22439;SDS011;11387;51.612;7.210;2023-12-20T09:38:06;21.48;;;4.40;;
22439;SDS011;11387;51.612;7.210;2023-12-20T09:40:37;26.88;;;4.55;;
22439;SDS011;11387;51.612;7.210;2023-12-20T09:43:10;31.85;;;4.65;;
22439;SDS011;11387;51.612;7.210;2023-12-20T09:45:43;23.65;;;5.38;;
22439;SDS011;11387;51.612;7.210;2023-12-20T09:48:21;25.93;;;4.87;;
22439;SDS011;11387;51.612;7.210;2023-12-20T09:50:51;19.05;;;4.30;;
22439;SDS011;11387;51.612;7.210;2023-12-20T09:53:21;17.77;;;5.13;;
22439;SDS011;11387;51.612;7.210;2023-12-20T09:55:57;30.63;;;5.30;;
22439;SDS011;11387;51.612;7.210;2023-12-20T09:58:27;22.10;;;4.50;;
22439;SDS011;11387;51.612;7.210;2023-12-20T10:01:13;27.25;;;5.05;;
22439;SDS011;11387;51.612;7.210;2023-12-20T10:03:51;22.52;;;4.85;;
22439;SDS011;11387;51.612;7.210;2023-12-20T10:06:23;30.90;;;5.70;;
22439;SDS011;11387;51.612;7.210;2023-12-20T10:08:51;19.98;;;5.10;;
22439;SDS011;11387;51.612;7.210;2023-12-20T10:11:21;19.75;;;5.07;;
22439;SDS011;11387;51.612;7.210;2023-12-20T10:13:49;19.98;;;5.57;;
22439;SDS011;11387;51.612;7.210;2023-12-20T10:16:20;20.90;;;4.97;;
22439;SDS011;11387;51.612;7.210;2023-12-20T10:18:54;19.95;;;4.82;;
22439;SDS011;11387;51.612;7.210;2023-12-20T10:21:23;29.83;;;4.82;;
22439;SDS011;11387;51.612;7.210;2023-12-20T10:23:53;18.92;;;4.88;;
22439;SDS011;11387;51.612;7.210;2023-12-20T10:26:22;25.85;;;4.75;;
22439;SDS011;11387;51.612;7.210;2023-12-20T10:28:54;20.52;;;5.78;;
22439;SDS011;11387;51.612;7.210;2023-12-20T10:31:28;20.77;;;4.93;;
22439;SDS011;11387;51.612;7.210;2023-12-20T10:34:02;37.97;;;5.32;;
22439;SDS011;11387;51.612;7.210;2023-12-20T10:36:31;16.73;;;4.47;;
22439;SDS011;11387;51.612;7.210;2023-12-20T10:39:03;13.68;;;3.85;;
22439;SDS011;11387;51.612;7.210;2023-12-20T10:41:35;21.90;;;5.38;;
22439;SDS011;11387;51.612;7.210;2023-12-20T10:44:08;25.30;;;5.03;;
22439;SDS011;11387;51.612;7.210;2023-12-20T10:46:38;32.85;;;5.72;;
22439;SDS011;11387;51.612;7.210;2023-12-20T10:49:09;26.45;;;5.30;;
22439;SDS011;11387;51.612;7.210;2023-12-20T10:51:38;20.58;;;4.88;;
22439;SDS011;11387;51.612;7.210;2023-12-20T10:54:07;29.58;;;5.38;;
22439;SDS011;11387;51.612;7.210;2023-12-20T10:56:36;24.70;;;5.28;;
22439;SDS011;11387;51.612;7.210;2023-12-20T10:59:06;17.80;;;3.97;;
22439;SDS011;11387;51.612;7.210;2023-12-20T11:01:41;24.48;;;4.88;;
22439;SDS011;11387;51.612;7.210;2023-12-20T11:04:13;18.05;;;4.25;;
22439;SDS011;11387;51.612;7.210;2023-12-20T11:06:48;29.98;;;4.70;;
22439;SDS011;11387;51.612;7.210;2023-12-20T11:09:22;23.63;;;4.53;;
22439;SDS011;11387;51.612;7.210;2023-12-20T11:11:59;18.70;;;5.13;;
22439;SDS011;11387;51.612;7.210;2023-12-20T11:14:35;19.92;;;4.78;;
22439;SDS011;11387;51.612;7.210;2023-12-20T11:17:09;21.60;;;3.92;;
22439;SDS011;11387;51.612;7.210;2023-12-20T11:19:45;22.10;;;5.13;;
22439;SDS011;11387;51.612;7.210;2023-12-20T11:22:33;19.25;;;4.88;;
22439;SDS011;11387;51.612;7.210;2023-12-20T11:25:07;17.55;;;4.40;;
22439;SDS011;11387;51.612;7.210;2023-12-20T11:27:40;16.25;;;3.97;;
22439;SDS011;11387;51.612;7.210;2023-12-20T11:30:11;20.55;;;5.68;;
22439;SDS011;11387;51.612;7.210;2023-12-20T11:32:42;32.28;;;4.78;;
22439;SDS011;11387;51.612;7.210;2023-12-20T11:35:18;16.75;;;4.22;;
22439;SDS011;11387;51.612;7.210;2023-12-20T11:37:48;20.45;;;4.60;;
22439;SDS011;11387;51.612;7.210;2023-12-20T11:40:17;21.10;;;4.00;;
22439;SDS011;11387;51.612;7.210;2023-12-20T11:42:48;24.27;;;5.72;;
22439;SDS011;11387;51.612;7.210;2023-12-20T11:45:18;19.83;;;5.68;;
22439;SDS011;11387;51.612;7.210;2023-12-20T11:47:50;24.02;;;5.00;;
22439;SDS011;11387;51.612;7.210;2023-12-20T11:50:23;23.35;;;5.10;;
22439;SDS011;11387;51.612;7.210;2023-12-20T11:52:54;22.48;;;5.15;;
22439;SDS011;11387;51.612;7.210;2023-12-20T11:55:23;18.40;;;4.78;;
22439;SDS011;11387;51.612;7.210;2023-12-20T11:57:52;21.30;;;6.38;;
22439;SDS011;11387;51.612;7.210;2023-12-20T12:00:22;24.30;;;6.25;;
22439;SDS011;11387;51.612;7.210;2023-12-20T12:02:57;22.23;;;5.45;;
22439;SDS011;11387;51.612;7.210;2023-12-20T12:05:28;27.95;;;5.93;;
22439;SDS011;11387;51.612;7.210;2023-12-20T12:07:59;24.58;;;6.75;;
22439;SDS011;11387;51.612;7.210;2023-12-20T12:10:28;20.90;;;6.28;;
22439;SDS011;11387;51.612;7.210;2023-12-20T12:12:57;26.55;;;6.35;;
22439;SDS011;11387;51.612;7.210;2023-12-20T12:15:26;33.22;;;8.00;;
22439;SDS011;11387;51.612;7.210;2023-12-20T12:17:55;30.27;;;8.38;;
22439;SDS011;11387;51.612;7.210;2023-12-20T12:20:25;31.38;;;8.45;;
22439;SDS011;11387;51.612;7.210;2023-12-20T12:22:58;27.63;;;7.90;;
22439;SDS011;11387;51.612;7.210;2023-12-20T12:25:28;29.95;;;9.20;;
22439;SDS011;11387;51.612;7.210;2023-12-20T12:27:59;32.00;;;9.00;;
22439;SDS011;11387;51.612;7.210;2023-12-20T12:30:27;28.05;;;10.15;;
22439;SDS011;11387;51.612;7.210;2023-12-20T12:33:04;24.42;;;8.80;;
22439;SDS011;11387;51.612;7.210;2023-12-20T12:35:33;29.60;;;8.93;;
22439;SDS011;11387;51.612;7.210;2023-12-20T12:38:04;30.20;;;9.80;;
22439;SDS011;11387;51.612;7.210;2023-12-20T12:40:36;30.85;;;8.52;;
22439;SDS011;11387;51.612;7.210;2023-12-20T12:43:04;33.80;;;9.07;;
22439;SDS011;11387;51.612;7.210;2023-12-20T12:45:34;28.25;;;7.82;;
22439;SDS011;11387;51.612;7.210;2023-12-20T12:48:03;26.73;;;7.53;;
22439;SDS011;11387;51.612;7.210;2023-12-20T12:50:32;24.27;;;7.43;;
22439;SDS011;11387;51.612;7.210;2023-12-20T12:53:01;26.40;;;7.93;;
22439;SDS011;11387;51.612;7.210;2023-12-20T12:55:32;27.52;;;7.53;;
22439;SDS011;11387;51.612;7.210;2023-12-20T12:58:02;23.27;;;6.55;;
22439;SDS011;11387;51.612;7.210;2023-12-20T13:00:31;18.75;;;5.63;;
22439;SDS011;11387;51.612;7.210;2023-12-20T13:02:59;24.70;;;6.20;;
22439;SDS011;11387;51.612;7.210;2023-12-20T13:05:28;30.77;;;7.00;;
22439;SDS011;11387;51.612;7.210;2023-12-20T13:08:00;24.77;;;6.57;;
22439;SDS011;11387;51.612;7.210;2023-12-20T13:10:28;19.92;;;5.03;;
22439;SDS011;11387;51.612;7.210;2023-12-20T13:12:58;25.25;;;5.72;;
22439;SDS011;11387;51.612;7.210;2023-12-20T13:15:27;22.77;;;6.68;;
22439;SDS011;11387;51.612;7.210;2023-12-20T13:17:56;20.98;;;6.22;;
22439;SDS011;11387;51.612;7.210;2023-12-20T13:20:24;21.63;;;6.15;;
22439;SDS011;11387;51.612;7.210;2023-12-20T13:22:53;23.42;;;6.50;;
22439;SDS011;11387;51.612;7.210;2023-12-20T13:25:36;20.67;;;5.65;;
22439;SDS011;11387;51.612;7.210;2023-12-20T13:28:06;27.15;;;6.35;;
22439;SDS011;11387;51.612;7.210;2023-12-20T13:30:35;30.65;;;6.70;;
22439;SDS011;11387;51.612;7.210;2023-12-20T13:33:04;25.77;;;6.72;;
22439;SDS011;11387;51.612;7.210;2023-12-20T13:35:32;27.58;;;6.68;;
22439;SDS011;11387;51.612;7.210;2023-12-20T13:38:02;21.70;;;6.10;;
22439;SDS011;11387;51.612;7.210;2023-12-20T13:40:32;25.35;;;7.20;;
22439;SDS011;11387;51.612;7.210;2023-12-20T13:43:01;26.17;;;7.47;;
22439;SDS011;11387;51.612;7.210;2023-12-20T13:45:33;24.83;;;7.72;;
22439;SDS011;11387;51.612;7.210;2023-12-20T13:48:02;29.30;;;7.85;;
22439;SDS011;11387;51.612;7.210;2023-12-20T13:50:31;25.30;;;7.70;;
22439;SDS011;11387;51.612;7.210;2023-12-20T13:53:00;24.08;;;7.35;;
22439;SDS011;11387;51.612;7.210;2023-12-20T13:55:31;18.75;;;7.70;;
22439;SDS011;11387;51.612;7.210;2023-12-20T13:58:00;23.42;;;8.27;;
22439;SDS011;11387;51.612;7.210;2023-12-20T14:00:30;21.55;;;7.38;;
22439;SDS011;11387;51.612;7.210;2023-12-20T14:03:00;18.23;;;7.70;;
22439;SDS011;11387;51.612;7.210;2023-12-20T14:05:28;19.45;;;8.48;;
22439;SDS011;11387;51.612;7.210;2023-12-20T14:07:57;17.40;;;7.88;;
22439;SDS011;11387;51.612;7.210;2023-12-20T14:10:26;22.77;;;7.75;;
22439;SDS011;11387;51.612;7.210;2023-12-20T14:12:55;26.02;;;8.60;;
22439;SDS011;11387;51.612;7.210;2023-12-20T14:15:24;23.92;;;9.20;;
22439;SDS011;11387;51.612;7.210;2023-12-20T14:17:53;23.67;;;8.85;;
22439;SDS011;11387;51.612;7.210;2023-12-20T14:20:24;30.58;;;9.48;;
22439;SDS011;11387;51.612;7.210;2023-12-20T14:22:59;23.30;;;9.32;;
22439;SDS011;11387;51.612;7.210;2023-12-20T14:25:27;30.83;;;10.45;;
22439;SDS011;11387;51.612;7.210;2023-12-20T14:28:02;25.35;;;9.88;;
22439;SDS011;11387;51.612;7.210;2023-12-20T14:30:30;20.13;;;10.30;;
22439;SDS011;11387;51.612;7.210;2023-12-20T14:32:59;30.85;;;11.60;;
22439;SDS011;11387;51.612;7.210;2023-12-20T14:35:29;23.90;;;11.45;;
22439;SDS011;11387;51.612;7.210;2023-12-20T14:37:58;27.27;;;12.45;;
22439;SDS011;11387;51.612;7.210;2023-12-20T14:40:27;24.73;;;11.23;;
22439;SDS011;11387;51.612;7.210;2023-12-20T14:42:55;34.92;;;14.60;;
22439;SDS011;11387;51.612;7.210;2023-12-20T14:45:24;23.90;;;11.98;;
22439;SDS011;11387;51.612;7.210;2023-12-20T14:47:54;24.60;;;10.68;;